Time;durP1;ratioP1;P1;durP2;ratioP2;P2;SDS_P1;SDS_P2;PMS_P1;PMS_P2;Temp;Humidity;BMP_temperature;BMP_pressure;BME280_temperature;BME280_humidity;BME280_pressure;Samples;Min_cycle;Max_cycle;Signal;HPM_P1;HPM_P2
2022/01/26 00:00:29;;;;;;;100.40;33.05;;;0.90;99.90;;;;;;4209571;28;20127;-77
2022/01/26 00:07:03;;;;;;;91.85;30.35;;;1.00;99.90;;;;;;4219836;28;20074;-78
2022/01/26 00:09:06;;;;;;;79.35;30.65;;;1.00;99.90;;;;;;4208947;28;20131;-77
2022/01/26 00:11:08;;;;;;;100.35;33.05;;;1.00;99.90;;;;;;4211367;28;20139;-77
2022/01/26 00:13:10;;;;;;;99.63;33.58;;;1.00;99.90;;;;;;4225593;28;20127;-79
2022/01/26 00:15:12;;;;;;;103.55;34.08;;;1.00;99.90;;;;;;4225992;28;20127;-77
2022/01/26 00:17:14;;;;;;;93.68;31.60;;;1.00;99.90;;;;;;4222531;28;20702;-80
2022/01/26 00:19:25;;;;;;;102.63;33.17;;;1.10;99.90;;;;;;4212717;28;20040;-81
2022/01/26 00:21:35;;;;;;;96.68;33.80;;;1.00;99.90;;;;;;4212514;28;20044;-79
2022/01/26 00:39:52;;;;;;;102.55;32.45;;;0.90;99.90;;;;;;4180226;28;20110;-77
2022/01/26 00:41:57;;;;;;;104.53;34.33;;;0.90;99.90;;;;;;4170594;28;20088;-78
2022/01/26 00:44:00;;;;;;;104.65;33.95;;;0.90;99.90;;;;;;4199180;28;20087;-80
2022/01/26 00:46:05;;;;;;;109.63;34.60;;;0.90;99.90;;;;;;4198166;28;20075;-76
2022/01/26 00:48:09;;;;;;;111.93;33.85;;;1.00;99.90;;;;;;4226215;28;20053;-78
2022/01/26 00:50:12;;;;;;;108.20;34.70;;;1.00;99.90;;;;;;4215174;28;20123;-78
2022/01/26 00:52:24;;;;;;;94.07;32.40;;;1.00;99.90;;;;;;4214379;28;20564;-78
2022/01/26 00:54:27;;;;;;;108.68;33.80;;;1.00;99.90;;;;;;4211793;28;20044;-78
2022/01/26 00:56:29;;;;;;;106.85;35.25;;;1.00;99.90;;;;;;4214365;28;20115;-80
2022/01/26 00:58:32;;;;;;;96.95;33.13;;;1.00;99.90;;;;;;4214068;28;20135;-79
2022/01/26 01:00:35;;;;;;;104.20;33.63;;;1.00;99.90;;;;;;4212002;28;20056;-79
2022/01/26 01:02:37;;;;;;;116.43;34.78;;;1.00;99.90;;;;;;4210594;28;20105;-78
2022/01/26 01:04:40;;;;;;;116.30;36.55;;;1.00;99.90;;;;;;4213931;28;20040;-79
2022/01/26 01:06:48;;;;;;;108.10;34.97;;;1.10;99.90;;;;;;4197476;28;20046;-77
2022/01/26 01:08:50;;;;;;;124.63;36.30;;;1.00;99.90;;;;;;4196218;28;20072;-76
2022/01/26 01:10:54;;;;;;;117.40;36.22;;;1.00;99.90;;;;;;4231614;28;20527;-78
2022/01/26 01:12:58;;;;;;;112.50;35.40;;;1.00;99.90;;;;;;4198503;28;20053;-78
2022/01/26 01:15:01;;;;;;;106.88;34.28;;;1.00;99.90;;;;;;4198932;28;20124;-77
2022/01/26 01:17:05;;;;;;;110.80;35.38;;;1.00;99.90;;;;;;4197757;28;20522;-78
2022/01/26 01:19:16;;;;;;;112.57;34.85;;;1.00;99.90;;;;;;4229179;28;20079;-79
2022/01/26 01:30:31;;;;;;;107.20;34.67;;;1.00;99.90;;;;;;4191283;28;20076;-78
2022/01/26 01:33:21;;;;;;;104.40;34.58;;;1.10;99.90;;;;;;4197421;28;20146;-77
2022/01/26 01:34:55;;;;;;;112.60;34.50;;;1.10;99.90;;;;;;4188066;28;20528;-78
2022/01/26 01:37:03;;;;;;;112.55;34.60;;;1.10;99.90;;;;;;4195316;28;20052;-80
2022/01/26 01:39:07;;;;;;;107.78;34.22;;;1.10;99.90;;;;;;4192856;28;20131;-78
2022/01/26 01:41:09;;;;;;;101.93;28.73;;;1.10;99.90;;;;;;4197099;28;20096;-79
2022/01/26 01:43:12;;;;;;;112.82;34.13;;;1.20;99.90;;;;;;4197034;28;20295;-79
2022/01/26 01:45:14;;;;;;;122.32;35.50;;;1.20;99.90;;;;;;4195147;28;20040;-80
2022/01/26 01:47:16;;;;;;;114.90;33.75;;;1.20;99.90;;;;;;4201959;28;20141;-78
2022/01/26 01:49:18;;;;;;;123.65;35.70;;;1.30;99.90;;;;;;4213839;28;20055;-80
2022/01/26 01:51:28;;;;;;;121.95;37.25;;;1.30;99.90;;;;;;4213983;28;20161;-80
2022/01/26 01:53:36;;;;;;;123.88;38.90;;;1.30;99.90;;;;;;4207707;28;20071;-77
2022/01/26 01:55:40;;;;;;;133.57;37.33;;;1.30;99.90;;;;;;4180814;28;20123;-82
2022/01/26 01:57:42;;;;;;;132.70;36.55;;;1.30;99.90;;;;;;4182109;28;20087;-78
2022/01/26 01:59:44;;;;;;;115.80;34.03;;;1.30;99.90;;;;;;4213562;28;20048;-79
2022/01/26 02:01:46;;;;;;;99.80;32.47;;;1.40;99.90;;;;;;4196696;28;20135;-81
2022/01/26 02:03:49;;;;;;;108.50;32.92;;;1.40;99.90;;;;;;4228471;28;20086;-79
2022/01/26 02:05:50;;;;;;;119.93;34.60;;;1.40;99.90;;;;;;4190573;28;20565;-79
2022/01/26 02:07:53;;;;;;;112.15;34.35;;;1.30;99.90;;;;;;4188940;28;20080;-78
2022/01/26 02:09:54;;;;;;;117.57;35.15;;;1.40;99.90;;;;;;4222929;28;20055;-80
2022/01/26 02:12:00;;;;;;;122.70;37.92;;;1.30;99.90;;;;;;4213769;28;20082;-78
2022/01/26 02:14:07;;;;;;;117.97;37.13;;;1.40;99.90;;;;;;4213254;28;20539;-78
2022/01/26 02:21:43;;;;;;;109.57;33.40;;;1.40;99.90;;;;;;4179683;28;20064;-78
2022/01/26 02:56:13;;;;;;;120.63;35.75;;;1.60;99.90;;;;;;4179204;28;20052;-82
2022/01/26 03:00:54;;;;;;;110.50;35.97;;;1.60;99.90;;;;;;4181909;28;20049;-79
2022/01/26 03:03:00;;;;;;;110.28;37.17;;;1.60;99.90;;;;;;4195948;28;20044;-79
2022/01/26 03:05:05;;;;;;;118.53;34.63;;;1.60;99.90;;;;;;4187569;28;20115;-78
2022/01/26 03:07:21;;;;;;;111.18;33.78;;;1.60;99.90;;;;;;4195507;28;20090;-78
2022/01/26 03:09:29;;;;;;;109.45;36.70;;;1.60;99.90;;;;;;4179120;28;20115;-78
2022/01/26 03:11:34;;;;;;;113.80;35.92;;;1.60;99.90;;;;;;4220743;28;20135;-78
2022/01/26 03:13:41;;;;;;;;;;;1.70;99.90;;;;;;4230252;28;20089;-78
2022/01/26 03:15:51;;;;;;;103.45;33.67;;;1.70;99.90;;;;;;4196049;28;20380;-78
2022/01/26 03:20:15;;;;;;;106.18;33.97;;;1.70;99.90;;;;;;4191746;28;20114;-81
2022/01/26 03:28:13;;;;;;;108.63;34.47;;;1.70;99.90;;;;;;4180349;28;20433;-78
2022/01/26 03:33:52;;;;;;;110.78;34.90;;;1.70;99.90;;;;;;4183419;28;20080;-78
2022/01/26 03:35:57;;;;;;;106.40;33.47;;;1.70;99.90;;;;;;4179109;28;20472;-78
2022/01/26 03:38:00;;;;;;;104.13;33.67;;;1.70;99.90;;;;;;4211053;28;20040;-79
2022/01/26 03:40:11;;;;;;;104.97;33.40;;;1.70;99.90;;;;;;4227392;28;20079;-78
2022/01/26 03:42:15;;;;;;;104.88;32.97;;;1.70;99.90;;;;;;4223986;28;20598;-78
2022/01/26 03:44:17;;;;;;;99.18;33.95;;;1.70;99.90;;;;;;4211855;28;20420;-79
2022/01/26 03:46:20;;;;;;;109.53;34.40;;;1.70;99.90;;;;;;4217565;28;20519;-76
2022/01/26 03:48:22;;;;;;;103.85;33.33;;;1.70;99.90;;;;;;4194348;28;20075;-80
2022/01/26 03:50:25;;;;;;;102.53;34.00;;;1.70;99.90;;;;;;4212260;28;20055;-78
2022/01/26 03:52:27;;;;;;;103.70;33.85;;;1.70;99.90;;;;;;4212772;28;20048;-81
2022/01/26 03:54:29;;;;;;;114.40;34.20;;;1.70;99.90;;;;;;4215429;28;20074;-78
2022/01/26 03:56:31;;;;;;;113.00;35.35;;;1.70;99.90;;;;;;4217034;28;20051;-78
2022/01/26 03:58:33;;;;;;;107.28;33.60;;;1.70;99.90;;;;;;4231826;28;20146;-79
2022/01/26 04:00:36;;;;;;;105.80;33.85;;;1.70;99.90;;;;;;4199906;28;20136;-78
2022/01/26 04:02:38;;;;;;;104.15;33.97;;;1.70;99.90;;;;;;4223901;28;20043;-79
2022/01/26 04:04:48;;;;;;;104.57;32.05;;;1.70;99.90;;;;;;4221055;28;20044;-78
2022/01/26 04:06:50;;;;;;;107.15;33.47;;;1.70;99.90;;;;;;4189604;28;20122;-78
2022/01/26 04:08:52;;;;;;;103.40;33.40;;;1.70;99.90;;;;;;4206349;28;20105;-80
2022/01/26 04:13:12;;;;;;;107.47;34.17;;;1.70;99.90;;;;;;4166810;28;20046;-78
2022/01/26 04:15:25;;;;;;;114.43;33.78;;;1.70;99.90;;;;;;4165926;28;20316;-79
2022/01/26 04:17:27;;;;;;;105.10;34.17;;;1.70;99.90;;;;;;4170286;28;20473;-80
2022/01/26 04:19:32;;;;;;;100.22;32.45;;;1.60;99.90;;;;;;4182125;28;20079;-78
2022/01/26 04:23:54;;;;;;;113.22;33.47;;;1.70;99.90;;;;;;4182908;28;19971;-79
2022/01/26 04:25:56;;;;;;;108.95;34.00;;;1.70;99.90;;;;;;4179805;28;20068;-78
2022/01/26 04:28:03;;;;;;;115.60;32.38;;;1.70;99.90;;;;;;4165590;28;20046;-81
2022/01/26 04:30:06;;;;;;;122.82;34.53;;;1.60;99.90;;;;;;4165761;28;20069;-78
2022/01/26 04:32:09;;;;;;;105.68;32.95;;;1.70;99.90;;;;;;4165655;28;20080;-80
2022/01/26 04:34:11;;;;;;;118.97;33.75;;;1.60;99.90;;;;;;4165130;28;20567;-78
2022/01/26 04:36:18;;;;;;;117.32;33.72;;;1.70;99.90;;;;;;4171565;28;20076;-78
2022/01/26 04:38:27;;;;;;;135.65;34.70;;;1.60;99.90;;;;;;4174821;28;20558;-78
2022/01/26 04:40:36;;;;;;;106.25;31.90;;;1.70;99.90;;;;;;4176990;28;20048;-78
2022/01/26 04:42:50;;;;;;;117.53;33.65;;;1.60;99.90;;;;;;4181959;28;20052;-78
2022/01/26 04:45:02;;;;;;;143.70;33.80;;;1.60;99.90;;;;;;4181882;28;20072;-82
2022/01/26 04:47:04;;;;;;;114.07;34.05;;;1.60;99.90;;;;;;4179170;28;20103;-78
2022/01/26 04:49:06;;;;;;;121.53;34.47;;;1.60;99.90;;;;;;4181408;28;20056;-78
2022/01/26 04:51:08;;;;;;;112.00;33.40;;;1.60;99.90;;;;;;4181957;28;20087;-76
2022/01/26 04:53:13;;;;;;;123.03;32.85;;;1.50;99.90;;;;;;4179459;28;20049;-78
2022/01/26 04:55:15;;;;;;;120.68;33.72;;;1.50;99.90;;;;;;4169932;28;20135;-77
2022/01/26 04:57:17;;;;;;;113.63;33.10;;;1.50;99.90;;;;;;4164878;28;20061;-75
2022/01/26 04:59:19;;;;;;;116.53;33.78;;;1.40;99.90;;;;;;4201139;28;20091;-78
2022/01/26 05:01:21;;;;;;;115.80;31.85;;;1.40;99.90;;;;;;4178275;28;20084;-78
2022/01/26 05:03:23;;;;;;;112.10;32.58;;;1.40;99.90;;;;;;4181151;28;20060;-79
2022/01/26 05:05:25;;;;;;;115.68;34.22;;;1.30;99.90;;;;;;4178651;28;20057;-78
2022/01/26 05:07:27;;;;;;;112.60;34.83;;;1.30;99.90;;;;;;4185923;28;20092;-78
2022/01/26 05:09:29;;;;;;;119.47;32.90;;;1.10;99.90;;;;;;4217744;28;20078;-79
2022/01/26 05:11:37;;;;;;;121.63;32.90;;;1.10;99.90;;;;;;4225813;28;20114;-78
2022/01/26 05:13:39;;;;;;;113.50;31.67;;;0.90;99.90;;;;;;4181680;28;20056;-78
2022/01/26 05:15:42;;;;;;;110.57;31.70;;;0.80;99.90;;;;;;4181618;28;20152;-79
2022/01/26 05:17:44;;;;;;;115.35;34.40;;;0.70;99.90;;;;;;4215164;28;20086;-79
2022/01/26 05:19:47;;;;;;;112.03;32.03;;;0.70;99.90;;;;;;4188981;28;20315;-77
2022/01/26 05:21:49;;;;;;;126.55;34.17;;;0.70;99.90;;;;;;4221449;28;20086;-80
2022/01/26 05:23:51;;;;;;;123.47;33.60;;;0.60;99.90;;;;;;4180597;28;20072;-78
2022/01/26 05:25:54;;;;;;;118.28;33.42;;;0.50;99.90;;;;;;4213752;28;20539;-78
2022/01/26 05:27:56;;;;;;;132.80;33.40;;;0.50;99.90;;;;;;4230281;28;20039;-78
2022/01/26 05:29:58;;;;;;;113.50;31.55;;;0.50;99.90;;;;;;4230416;28;20442;-78
2022/01/26 05:32:01;;;;;;;126.43;32.72;;;0.50;99.90;;;;;;4229875;28;20050;-77
2022/01/26 05:34:03;;;;;;;111.85;30.38;;;0.50;99.90;;;;;;4228456;28;20503;-78
2022/01/26 05:36:05;;;;;;;120.95;32.88;;;0.50;99.90;;;;;;4195287;28;20045;-77
2022/01/26 05:38:08;;;;;;;120.45;31.90;;;0.50;99.90;;;;;;4196825;28;20526;-80
2022/01/26 05:40:11;;;;;;;124.53;34.33;;;0.60;99.90;;;;;;4230768;28;20059;-79
2022/01/26 05:42:13;;;;;;;123.38;33.67;;;0.50;99.90;;;;;;4230480;28;20137;-78
2022/01/26 05:44:15;;;;;;;120.30;32.90;;;0.60;99.90;;;;;;4193338;28;20056;-78
2022/01/26 05:46:27;;;;;;;142.27;35.40;;;0.70;99.90;;;;;;4182926;28;20200;-77
2022/01/26 05:48:30;;;;;;;125.63;33.33;;;0.70;99.90;;;;;;4196522;28;20066;-79
2022/01/26 05:50:32;;;;;;;131.10;34.65;;;0.70;99.90;;;;;;4185114;28;20083;-78
2022/01/26 05:52:34;;;;;;;125.63;32.13;;;0.80;99.90;;;;;;4213292;28;20075;-78
2022/01/26 05:54:36;;;;;;;138.30;35.67;;;0.80;99.90;;;;;;4179919;28;20049;-78
2022/01/26 05:56:39;;;;;;;122.93;34.38;;;0.80;99.90;;;;;;4180376;28;20720;-79
2022/01/26 05:58:41;;;;;;;134.98;34.80;;;0.80;99.90;;;;;;4229845;28;20044;-78
2022/01/26 06:00:47;;;;;;;132.90;34.35;;;0.80;99.90;;;;;;4229252;28;20138;-79
2022/01/26 06:02:50;;;;;;;126.40;33.75;;;0.80;99.90;;;;;;4229632;28;20094;-78
2022/01/26 06:04:52;;;;;;;121.10;32.17;;;0.80;99.90;;;;;;4230121;28;20040;-78
2022/01/26 06:06:54;;;;;;;115.05;33.53;;;0.80;99.90;;;;;;4225482;28;20047;-78
2022/01/26 06:08:56;;;;;;;119.60;33.40;;;0.70;99.90;;;;;;4196139;28;20127;-78
2022/01/26 06:10:59;;;;;;;112.43;31.67;;;0.70;99.90;;;;;;4230648;28;20093;-77
2022/01/26 06:13:02;;;;;;;111.05;31.83;;;0.70;99.90;;;;;;4226828;28;20083;-80
2022/01/26 06:15:04;;;;;;;117.85;32.05;;;0.80;99.90;;;;;;4220481;28;20082;-78
2022/01/26 06:17:07;;;;;;;115.97;31.13;;;0.80;99.90;;;;;;4185686;28;20084;-76
2022/01/26 06:19:09;;;;;;;110.38;30.75;;;0.80;99.90;;;;;;4193460;28;20106;-79
2022/01/26 06:21:11;;;;;;;115.85;31.90;;;0.80;99.90;;;;;;4187361;28;20049;-79
2022/01/26 06:23:13;;;;;;;118.95;32.75;;;0.90;99.90;;;;;;4214950;28;20051;-78
2022/01/26 06:25:15;;;;;;;122.78;33.97;;;0.80;99.90;;;;;;4186926;28;20063;-79
2022/01/26 06:27:17;;;;;;;129.65;34.78;;;0.90;99.90;;;;;;4230199;28;20048;-78
2022/01/26 06:29:19;;;;;;;125.53;34.45;;;0.80;99.90;;;;;;4229888;28;20092;-79
2022/01/26 06:31:26;;;;;;;108.00;32.03;;;0.90;99.90;;;;;;4230846;28;20072;-79
2022/01/26 06:33:29;;;;;;;115.30;31.33;;;0.90;99.90;;;;;;4226918;28;20529;-81
2022/01/26 06:35:34;;;;;;;111.32;29.73;;;0.90;99.90;;;;;;4222698;28;20546;-84
2022/01/26 06:37:36;;;;;;;107.28;31.33;;;0.90;99.90;;;;;;4188573;28;20119;-81
2022/01/26 06:39:38;;;;;;;125.93;33.05;;;0.90;99.90;;;;;;4216649;28;20443;-79
2022/01/26 06:41:49;;;;;;;113.78;32.05;;;1.00;99.90;;;;;;4189115;28;20076;-80
2022/01/26 06:43:57;;;;;;;115.78;33.38;;;1.00;99.90;;;;;;4224633;28;20051;-80
2022/01/26 06:46:06;;;;;;;110.10;31.65;;;1.00;99.90;;;;;;4227604;28;20510;-81
2022/01/26 06:50:13;;;;;;;117.07;34.40;;;1.00;99.90;;;;;;4192672;28;20052;-81
2022/01/26 06:52:14;;;;;;;107.53;32.05;;;1.00;99.90;;;;;;4195636;28;20128;-81
2022/01/26 06:54:17;;;;;;;102.70;31.60;;;1.10;99.90;;;;;;4194507;28;20076;-79
2022/01/26 06:56:19;;;;;;;113.75;32.78;;;1.10;99.90;;;;;;4220945;28;20082;-81
2022/01/26 06:58:21;;;;;;;102.88;31.38;;;1.10;99.90;;;;;;4221259;28;20052;-81
2022/01/26 07:00:23;;;;;;;107.40;33.28;;;1.10;99.90;;;;;;4226255;28;20043;-79
2022/01/26 07:02:25;;;;;;;102.88;33.33;;;1.10;99.90;;;;;;4221990;28;20071;-79
2022/01/26 07:04:27;;;;;;;113.30;34.40;;;1.10;99.90;;;;;;4221178;28;20056;-79
2022/01/26 07:06:29;;;;;;;110.22;33.15;;;1.10;99.90;;;;;;4191751;28;20049;-79
2022/01/26 07:08:32;;;;;;;105.95;32.50;;;1.20;99.90;;;;;;4208608;28;20087;-79
2022/01/26 07:10:34;;;;;;;105.65;33.05;;;1.20;99.90;;;;;;4171041;28;20087;-79
2022/01/26 07:12:36;;;;;;;114.75;32.45;;;1.20;99.90;;;;;;4176650;28;20069;-79
2022/01/26 07:21:40;;;;;;;115.70;35.47;;;1.20;99.90;;;;;;4172223;28;20124;-79
2022/01/26 07:23:42;;;;;;;102.40;31.98;;;1.30;99.90;;;;;;4177825;28;20087;-80
2022/01/26 07:25:44;;;;;;;108.70;33.30;;;1.30;99.90;;;;;;4175220;28;20129;-81
2022/01/26 07:27:46;;;;;;;106.47;33.10;;;1.20;99.90;;;;;;4175404;28;20531;-81
2022/01/26 07:29:51;;;;;;;119.20;34.00;;;1.20;99.90;;;;;;4183091;28;20539;-79
2022/01/26 07:31:53;;;;;;;118.72;34.13;;;1.20;99.90;;;;;;4176684;28;20045;-79
2022/01/26 07:33:57;;;;;;;108.88;33.40;;;1.20;99.90;;;;;;4181780;28;20045;-79
2022/01/26 07:35:59;;;;;;;118.40;34.17;;;1.20;99.90;;;;;;4178459;28;20482;-79
2022/01/26 07:38:03;;;;;;;116.07;34.17;;;1.30;99.90;;;;;;4174458;28;20107;-81
2022/01/26 07:40:06;;;;;;;130.85;35.30;;;1.30;99.90;;;;;;4171168;28;20069;-81
2022/01/26 07:42:10;;;;;;;122.10;33.83;;;1.30;99.90;;;;;;4177481;28;20045;-81
2022/01/26 07:44:12;;;;;;;117.05;33.85;;;1.30;99.90;;;;;;4209420;28;20566;-81
2022/01/26 07:46:14;;;;;;;131.52;37.60;;;1.30;99.90;;;;;;4174358;28;20076;-81
2022/01/26 07:48:16;;;;;;;113.45;33.80;;;1.30;99.90;;;;;;4171805;28;20124;-80
2022/01/26 07:50:20;;;;;;;127.93;36.08;;;1.30;99.90;;;;;;4165690;28;20061;-79
2022/01/26 07:52:23;;;;;;;119.95;35.95;;;1.30;99.90;;;;;;4165812;28;20087;-80
2022/01/26 07:54:25;;;;;;;116.03;34.45;;;1.30;99.90;;;;;;4165719;28;20132;-78
2022/01/26 07:56:29;;;;;;;133.05;35.15;;;1.30;99.90;;;;;;4171749;28;20247;-81
2022/01/26 07:58:31;;;;;;;121.15;35.33;;;1.30;99.90;;;;;;4173330;28;20052;-79
2022/01/26 08:00:33;;;;;;;125.65;33.70;;;1.40;99.90;;;;;;4168416;28;20049;-79
2022/01/26 08:02:35;;;;;;;120.00;34.08;;;1.40;99.90;;;;;;4181935;28;20049;-80
2022/01/26 08:04:38;;;;;;;115.60;35.33;;;1.40;99.90;;;;;;4165772;28;20057;-81
2022/01/26 08:06:40;;;;;;;129.57;37.13;;;1.40;99.90;;;;;;4165927;28;20049;-79
2022/01/26 08:08:42;;;;;;;120.63;35.78;;;1.50;99.90;;;;;;4180941;28;20059;-80
2022/01/26 08:10:48;;;;;;;118.35;35.20;;;1.50;99.90;;;;;;4198430;28;20068;-80
2022/01/26 08:12:50;;;;;;;109.78;34.75;;;1.50;99.90;;;;;;4218333;28;20511;-81
2022/01/26 08:14:58;;;;;;;120.25;35.13;;;1.50;99.90;;;;;;4224244;28;20339;-80
2022/01/26 08:17:02;;;;;;;119.63;34.50;;;1.50;99.90;;;;;;4184318;28;20056;-80
2022/01/26 08:19:04;;;;;;;117.55;33.90;;;1.50;99.90;;;;;;4217555;28;20055;-81
2022/01/26 08:21:06;;;;;;;127.90;34.20;;;1.50;99.90;;;;;;4187528;28;20064;-80
2022/01/26 08:23:09;;;;;;;123.40;35.15;;;1.40;99.90;;;;;;4197122;28;20098;-83
2022/01/26 08:25:11;;;;;;;126.95;35.15;;;1.30;99.90;;;;;;4232134;28;20058;-80
2022/01/26 08:27:15;;;;;;;122.15;37.20;;;1.30;99.90;;;;;;4221041;28;20046;-78
2022/01/26 08:29:24;;;;;;;114.97;34.05;;;1.30;99.90;;;;;;4226145;28;20102;-79
2022/01/26 08:31:27;;;;;;;115.63;34.00;;;1.20;99.90;;;;;;4231551;28;20067;-80
2022/01/26 08:33:30;;;;;;;118.65;33.58;;;1.20;99.90;;;;;;4198100;28;20048;-78
2022/01/26 08:35:33;;;;;;;133.07;36.35;;;1.20;99.90;;;;;;4196159;28;20048;-79
2022/01/26 08:37:35;;;;;;;120.35;34.80;;;1.30;99.90;;;;;;4190505;28;20057;-78
2022/01/26 08:39:38;;;;;;;119.93;35.63;;;1.30;99.90;;;;;;4181577;28;20080;-82
2022/01/26 08:41:40;;;;;;;103.93;32.28;;;1.40;99.90;;;;;;4181659;28;20049;-78
2022/01/26 08:43:42;;;;;;;102.47;32.60;;;1.30;99.90;;;;;;4214859;28;20048;-80
2022/01/26 08:45:44;;;;;;;115.22;33.67;;;1.40;99.90;;;;;;4229237;28;20063;-80
2022/01/26 08:47:49;;;;;;;122.05;34.88;;;1.40;99.90;;;;;;4231598;28;20126;-80
2022/01/26 08:49:51;;;;;;;106.68;32.38;;;1.50;99.90;;;;;;4227288;28;20055;-79
2022/01/26 08:51:57;;;;;;;112.97;34.00;;;1.60;99.90;;;;;;4214919;28;20117;-79
2022/01/26 08:53:59;;;;;;;113.28;34.10;;;1.70;99.90;;;;;;4220732;28;20043;-78
2022/01/26 08:56:01;;;;;;;112.47;34.80;;;1.80;99.90;;;;;;4198174;28;20447;-78
2022/01/26 08:58:04;;;;;;;129.02;36.15;;;1.80;99.90;;;;;;4228102;28;20055;-79
2022/01/26 09:00:08;;;;;;;110.20;34.90;;;1.90;99.90;;;;;;4220215;28;20086;-79
2022/01/26 09:02:10;;;;;;;106.82;35.55;;;2.00;99.90;;;;;;4215084;28;20421;-77
2022/01/26 09:04:13;;;;;;;111.07;35.45;;;2.10;99.90;;;;;;4225727;28;20043;-78
2022/01/26 09:06:15;;;;;;;106.35;32.85;;;2.10;99.90;;;;;;4224667;28;20502;-81
2022/01/26 09:08:18;;;;;;;116.57;34.08;;;2.20;99.90;;;;;;4181425;28;20080;-78
2022/01/26 09:10:20;;;;;;;125.90;40.53;;;2.30;99.90;;;;;;4181140;28;20044;-78
2022/01/26 09:12:25;;;;;;;105.82;34.38;;;2.30;99.90;;;;;;4192689;28;20049;-81
2022/01/26 09:14:28;;;;;;;104.72;33.90;;;2.40;99.90;;;;;;4192830;28;20114;-79
2022/01/26 09:16:30;;;;;;;97.85;33.15;;;2.40;99.90;;;;;;4179122;28;20075;-78
2022/01/26 09:18:44;;;;;;;102.50;33.92;;;2.40;99.90;;;;;;4178628;28;20071;-80
2022/01/26 09:20:46;;;;;;;99.47;33.90;;;2.50;99.90;;;;;;4188999;28;20053;-79
2022/01/26 09:22:48;;;;;;;100.65;35.72;;;2.50;99.90;;;;;;4197249;28;20486;-78
2022/01/26 09:24:50;;;;;;;105.28;35.28;;;2.60;99.90;;;;;;4181525;28;20053;-79
2022/01/26 09:26:52;;;;;;;101.40;32.47;;;2.60;99.90;;;;;;4180312;28;20073;-78
2022/01/26 09:28:54;;;;;;;101.28;33.33;;;2.70;99.90;;;;;;4177690;28;20736;-78
2022/01/26 09:30:56;;;;;;;99.90;34.03;;;2.70;99.90;;;;;;4183746;28;20051;-80
2022/01/26 09:32:58;;;;;;;97.32;33.85;;;2.70;99.90;;;;;;4183771;28;20044;-82
2022/01/26 09:35:00;;;;;;;114.38;44.15;;;2.80;99.90;;;;;;4188694;28;20053;-82
2022/01/26 09:37:07;;;;;;;110.80;40.88;;;2.90;99.90;;;;;;4197494;28;20091;-78
2022/01/26 09:39:09;;;;;;;88.53;33.20;;;2.90;99.90;;;;;;4195998;28;20079;-79
2022/01/26 09:41:11;;;;;;;91.32;33.35;;;3.00;99.90;;;;;;4197360;28;20106;-83
2022/01/26 09:43:16;;;;;;;85.88;30.92;;;3.00;99.90;;;;;;4181138;28;20094;-79
2022/01/26 09:45:18;;;;;;;85.72;31.35;;;3.10;99.90;;;;;;4179986;28;20055;-80
2022/01/26 09:47:21;;;;;;;88.50;33.42;;;3.20;99.90;;;;;;4186763;28;20036;-82
2022/01/26 09:49:31;;;;;;;84.32;33.08;;;3.20;99.90;;;;;;4180552;28;20522;-82
2022/01/26 09:51:40;;;;;;;84.47;32.38;;;3.30;99.90;;;;;;4181229;28;20076;-81
2022/01/26 09:53:42;;;;;;;90.30;34.55;;;3.20;99.90;;;;;;4180249;28;20116;-81
2022/01/26 09:55:44;;;;;;;85.57;30.95;;;3.30;99.90;;;;;;4177544;28;20048;-80
2022/01/26 09:57:46;;;;;;;90.88;31.70;;;3.30;99.90;;;;;;4180011;28;20076;-82
2022/01/26 09:59:48;;;;;;;86.03;32.42;;;3.40;99.90;;;;;;4178780;28;20052;-80
2022/01/26 10:01:51;;;;;;;87.22;31.27;;;3.40;99.90;;;;;;4185865;28;20045;-80
2022/01/26 10:03:53;;;;;;;84.63;34.85;;;3.40;99.90;;;;;;4196175;28;20040;-84
2022/01/26 10:05:56;;;;;;;85.45;32.72;;;3.40;99.90;;;;;;4179578;28;20120;-78
2022/01/26 10:17:28;;;;;;;72.88;31.63;;;3.60;99.90;;;;;;4173821;28;20045;-80
2022/01/26 10:19:32;;;;;;;76.38;32.58;;;3.60;99.90;;;;;;4177652;28;20604;-80
2022/01/26 10:21:52;;;;;;;68.47;29.35;;;3.70;99.90;;;;;;4179033;28;20059;-79
2022/01/26 10:23:57;;;;;;;78.07;29.90;;;3.70;99.90;;;;;;4176888;28;20052;-79
2022/01/26 10:26:07;;;;;;;72.63;29.80;;;3.80;99.90;;;;;;4195952;28;20839;-80
2022/01/26 10:28:11;;;;;;;80.95;31.55;;;3.80;99.90;;;;;;4177821;28;20056;-84
2022/01/26 10:30:16;;;;;;;74.63;30.88;;;3.90;99.90;;;;;;4196008;28;20057;-80
2022/01/26 10:32:18;;;;;;;85.10;33.45;;;3.90;99.90;;;;;;4179608;28;20140;-80
2022/01/26 10:34:23;;;;;;;76.00;30.45;;;3.90;99.90;;;;;;4195501;28;20110;-79
2022/01/26 10:36:33;;;;;;;71.03;29.75;;;4.00;99.90;;;;;;4192347;28;20124;-80
2022/01/26 10:38:35;;;;;;;79.35;30.67;;;4.10;99.90;;;;;;4179587;28;20488;-80
2022/01/26 10:40:39;;;;;;;76.55;30.55;;;4.10;99.90;;;;;;4164276;28;20054;-87
2022/01/26 10:43:06;;;;;;;74.85;29.83;;;4.10;99.90;;;;;;4166378;28;20107;-89
2022/01/26 10:45:18;;;;;;;70.97;29.10;;;4.00;99.90;;;;;;4163244;28;20484;-80
2022/01/26 10:47:50;;;;;;;72.93;30.45;;;4.10;99.90;;;;;;4194960;28;20048;-79
2022/01/26 10:50:29;;;;;;;72.93;29.52;;;4.20;99.90;;;;;;4191919;28;20044;-80
2022/01/26 10:52:35;;;;;;;77.43;30.13;;;4.20;99.90;;;;;;4163539;28;20138;-80
2022/01/26 10:54:37;;;;;;;66.05;28.67;;;4.20;99.90;;;;;;4162761;28;20519;-80
2022/01/26 10:56:40;;;;;;;70.10;28.23;;;4.20;99.90;;;;;;4165414;28;20072;-80
2022/01/26 10:58:42;;;;;;;79.43;31.40;;;4.30;99.90;;;;;;4191100;28;20131;-81
2022/01/26 11:00:45;;;;;;;80.18;31.00;;;4.30;99.90;;;;;;4189277;28;20554;-81
2022/01/26 11:02:48;;;;;;;77.15;32.05;;;4.30;99.90;;;;;;4183949;28;20053;-79
2022/01/26 11:04:51;;;;;;;70.90;29.23;;;4.40;99.90;;;;;;4162581;28;20049;-81
2022/01/26 11:06:54;;;;;;;76.40;32.35;;;4.40;99.90;;;;;;4162526;28;20076;-81
2022/01/26 11:09:07;;;;;;;75.68;31.23;;;4.40;99.90;;;;;;4182009;28;20052;-87
2022/01/26 11:11:23;;;;;;;72.25;29.55;;;4.30;99.90;;;;;;4181902;28;20053;-81
2022/01/26 11:13:43;;;;;;;;;;;4.40;99.90;;;;;;4179012;28;20041;-82
2022/01/26 11:15:45;;;;;;;69.53;27.90;;;4.50;99.90;;;;;;4205371;28;20258;-81
2022/01/26 11:17:47;;;;;;;73.60;29.50;;;4.50;99.90;;;;;;4175432;28;20580;-80
2022/01/26 11:19:49;;;;;;;74.75;29.83;;;4.60;99.90;;;;;;4203835;28;20074;-79
2022/01/26 11:21:52;;;;;;;69.75;29.33;;;4.70;99.90;;;;;;4212175;28;20048;-78
2022/01/26 11:24:24;;;;;;;72.88;29.20;;;4.80;99.90;;;;;;4185546;28;20045;-82
2022/01/26 11:26:26;;;;;;;72.00;28.38;;;4.90;99.90;;;;;;4179391;28;20073;-82
2022/01/26 11:28:29;;;;;;;70.28;28.77;;;4.80;99.90;;;;;;4182455;28;20080;-85
2022/01/26 11:30:33;;;;;;;67.38;28.65;;;4.80;99.90;;;;;;4177557;28;20049;-81
2022/01/26 11:32:38;;;;;;;71.75;31.25;;;4.80;99.90;;;;;;4167696;28;20096;-81
2022/01/26 11:34:41;;;;;;;71.65;30.17;;;4.90;99.90;;;;;;4170059;28;20053;-80
2022/01/26 11:36:44;;;;;;;65.95;28.42;;;4.90;99.90;;;;;;4196288;28;20044;-78
2022/01/26 11:46:10;;;;;;;69.55;30.33;;;5.40;99.90;;;;;;4179948;28;20136;-80
2022/01/26 11:48:24;;;;;;;64.88;27.63;;;5.40;99.90;;;;;;4177278;28;20199;-80
2022/01/26 11:50:28;;;;;;;67.90;29.88;;;5.40;99.90;;;;;;4170652;28;20154;-80
2022/01/26 11:52:35;;;;;;;65.47;28.48;;;5.40;99.90;;;;;;4163707;28;20073;-80
2022/01/26 11:54:51;;;;;;;66.70;28.45;;;5.30;99.90;;;;;;4189366;28;20055;-81
2022/01/26 11:57:09;;;;;;;67.85;28.58;;;5.30;99.90;;;;;;4184828;28;20060;-79
2022/01/26 11:59:22;;;;;;;68.85;28.35;;;5.30;99.90;;;;;;4192479;28;20817;-79
2022/01/26 12:01:33;;;;;;;72.72;30.63;;;5.30;99.90;;;;;;4175979;28;20056;-79
2022/01/26 12:03:43;;;;;;;70.13;29.40;;;5.20;99.90;;;;;;4182583;28;20049;-81
2022/01/26 12:05:46;;;;;;;68.88;29.58;;;5.10;99.90;;;;;;4194369;28;20044;-81
2022/01/26 12:07:55;;;;;;;69.93;28.63;;;5.30;99.90;;;;;;4185138;28;20051;-79
2022/01/26 12:09:57;;;;;;;68.38;28.95;;;5.40;99.90;;;;;;4222626;28;20800;-80
2022/01/26 12:11:59;;;;;;;67.22;29.40;;;5.40;99.90;;;;;;4224647;28;20071;-81
2022/01/26 12:14:07;;;;;;;71.97;29.70;;;5.40;99.90;;;;;;4191473;28;20049;-79
2022/01/26 12:16:23;;;;;;;68.00;29.77;;;5.50;99.90;;;;;;4231109;28;20122;-81
2022/01/26 12:32:26;;;;;;;61.78;26.80;;;5.70;99.90;;;;;;4186344;28;20075;-84
2022/01/26 12:41:54;;;;;;;63.38;28.17;;;5.90;99.90;;;;;;4184817;28;20044;-82
2022/01/26 12:44:12;;;;;;;62.70;26.40;;;6.00;99.90;;;;;;4229809;28;20040;-78
2022/01/26 12:46:31;;;;;;;73.50;28.50;;;5.90;99.90;;;;;;4223948;28;20052;-80
2022/01/26 12:48:34;;;;;;;62.22;27.67;;;6.00;99.90;;;;;;4198100;28;20131;-79